sensor_id;sensor_type;location;lat;lon;timestamp;temperature;humidity
75899;DHT22;64576;50.460;4.866;2023-05-10T00:02:03;11.16;99.99
75899;DHT22;64576;50.460;4.866;2023-05-10T00:04:29;11.16;99.99
75899;DHT22;64576;50.460;4.866;2023-05-10T00:06:54;11.13;99.99
75899;DHT22;64576;50.460;4.866;2023-05-10T00:09:20;11.10;99.99
75899;DHT22;64576;50.460;4.866;2023-05-10T00:11:45;11.09;99.99
75899;DHT22;64576;50.460;4.866;2023-05-10T00:14:11;11.07;99.99
75899;DHT22;64576;50.460;4.866;2023-05-10T00:16:36;11.06;99.99
75899;DHT22;64576;50.460;4.866;2023-05-10T00:19:02;11.10;99.99
75899;DHT22;64576;50.460;4.866;2023-05-10T00:21:27;11.07;99.99
75899;DHT22;64576;50.460;4.866;2023-05-10T00:23:53;11.07;99.99
75899;DHT22;64576;50.460;4.866;2023-05-10T00:26:19;11.02;99.99
75899;DHT22;64576;50.460;4.866;2023-05-10T00:28:45;11.06;99.99
75899;DHT22;64576;50.460;4.866;2023-05-10T00:31:10;11.06;99.99
75899;DHT22;64576;50.460;4.866;2023-05-10T00:33:35;11.04;99.99
75899;DHT22;64576;50.460;4.866;2023-05-10T00:36:01;11.06;99.99
75899;DHT22;64576;50.460;4.866;2023-05-10T00:38:26;11.06;99.99
75899;DHT22;64576;50.460;4.866;2023-05-10T00:40:52;11.06;99.99
75899;DHT22;64576;50.460;4.866;2023-05-10T00:43:17;11.04;99.99
75899;DHT22;64576;50.460;4.866;2023-05-10T00:45:43;11.04;99.99
75899;DHT22;64576;50.460;4.866;2023-05-10T00:48:08;11.07;99.99
75899;DHT22;64576;50.460;4.866;2023-05-10T00:50:34;11.12;99.99
75899;DHT22;64576;50.460;4.866;2023-05-10T00:53:00;11.12;99.99
75899;DHT22;64576;50.460;4.866;2023-05-10T00:55:26;11.14;99.99
75899;DHT22;64576;50.460;4.866;2023-05-10T00:57:53;11.17;99.99
75899;DHT22;64576;50.460;4.866;2023-05-10T01:00:19;11.17;99.99
75899;DHT22;64576;50.460;4.866;2023-05-10T01:02:45;11.14;99.99
75899;DHT22;64576;50.460;4.866;2023-05-10T01:05:11;11.16;99.99
75899;DHT22;64576;50.460;4.866;2023-05-10T01:07:37;11.16;99.99
75899;DHT22;64576;50.460;4.866;2023-05-10T01:10:02;11.14;99.99
75899;DHT22;64576;50.460;4.866;2023-05-10T01:12:28;11.14;99.99
75899;DHT22;64576;50.460;4.866;2023-05-10T01:14:54;11.19;99.99
75899;DHT22;64576;50.460;4.866;2023-05-10T01:17:21;11.20;99.99
75899;DHT22;64576;50.460;4.866;2023-05-10T01:19:47;11.22;99.99
75899;DHT22;64576;50.460;4.866;2023-05-10T01:27:45;11.22;99.99
75899;DHT22;64576;50.460;4.866;2023-05-10T01:38:57;11.28;99.99
75899;DHT22;64576;50.460;4.866;2023-05-10T01:41:41;11.28;99.99
75899;DHT22;64576;50.460;4.866;2023-05-10T01:47:00;11.33;99.99
75899;DHT22;64576;50.460;4.866;2023-05-10T01:49:30;11.34;99.99
75899;DHT22;64576;50.460;4.866;2023-05-10T01:52:06;11.33;99.99
75899;DHT22;64576;50.460;4.866;2023-05-10T01:54:32;11.34;99.99
75899;DHT22;64576;50.460;4.866;2023-05-10T01:57:05;11.34;99.99
75899;DHT22;64576;50.460;4.866;2023-05-10T01:59:34;11.37;99.99
75899;DHT22;64576;50.460;4.866;2023-05-10T02:02:06;11.37;99.99
75899;DHT22;64576;50.460;4.866;2023-05-10T02:04:35;11.37;99.99
75899;DHT22;64576;50.460;4.866;2023-05-10T02:07:00;11.37;99.99
75899;DHT22;64576;50.460;4.866;2023-05-10T02:09:27;11.35;99.99
75899;DHT22;64576;50.460;4.866;2023-05-10T02:11:53;11.35;99.99
75899;DHT22;64576;50.460;4.866;2023-05-10T02:14:20;11.38;99.99
75899;DHT22;64576;50.460;4.866;2023-05-10T02:16:46;11.35;99.99
75899;DHT22;64576;50.460;4.866;2023-05-10T02:19:13;11.40;99.99
75899;DHT22;64576;50.460;4.866;2023-05-10T02:21:40;11.38;99.99
75899;DHT22;64576;50.460;4.866;2023-05-10T02:24:07;11.38;99.99
75899;DHT22;64576;50.460;4.866;2023-05-10T02:26:35;11.35;99.99
75899;DHT22;64576;50.460;4.866;2023-05-10T02:29:02;11.35;99.99
75899;DHT22;64576;50.460;4.866;2023-05-10T02:31:30;11.34;99.99
75899;DHT22;64576;50.460;4.866;2023-05-10T02:33:57;11.34;99.99
75899;DHT22;64576;50.460;4.866;2023-05-10T02:36:24;11.33;99.99
75899;DHT22;64576;50.460;4.866;2023-05-10T02:38:52;11.37;99.99
75899;DHT22;64576;50.460;4.866;2023-05-10T02:41:20;11.34;99.99
75899;DHT22;64576;50.460;4.866;2023-05-10T02:43:50;11.34;99.99
75899;DHT22;64576;50.460;4.866;2023-05-10T02:46:15;11.34;99.99
75899;DHT22;64576;50.460;4.866;2023-05-10T02:48:41;11.37;99.99
75899;DHT22;64576;50.460;4.866;2023-05-10T02:51:07;11.37;99.99
75899;DHT22;64576;50.460;4.866;2023-05-10T02:53:36;11.34;99.99
75899;DHT22;64576;50.460;4.866;2023-05-10T02:56:20;11.34;99.99
75899;DHT22;64576;50.460;4.866;2023-05-10T02:58:48;11.34;99.99
75899;DHT22;64576;50.460;4.866;2023-05-10T03:01:14;11.35;99.99
75899;DHT22;64576;50.460;4.866;2023-05-10T03:03:39;11.34;99.99
75899;DHT22;64576;50.460;4.866;2023-05-10T03:06:05;11.33;99.99
75899;DHT22;64576;50.460;4.866;2023-05-10T03:08:30;11.34;99.99
75899;DHT22;64576;50.460;4.866;2023-05-10T03:13:48;11.33;99.99
75899;DHT22;64576;50.460;4.866;2023-05-10T03:16:25;11.34;99.99
75899;DHT22;64576;50.460;4.866;2023-05-10T03:19:30;11.31;99.99
75899;DHT22;64576;50.460;4.866;2023-05-10T03:21:59;11.34;99.99
75899;DHT22;64576;50.460;4.866;2023-05-10T03:24:27;11.34;99.99
75899;DHT22;64576;50.460;4.866;2023-05-10T03:26:55;11.33;99.99
75899;DHT22;64576;50.460;4.866;2023-05-10T03:29:22;11.31;99.99
75899;DHT22;64576;50.460;4.866;2023-05-10T03:31:50;11.35;99.99
75899;DHT22;64576;50.460;4.866;2023-05-10T03:34:15;11.30;99.99
75899;DHT22;64576;50.460;4.866;2023-05-10T03:36:42;11.31;99.99
75899;DHT22;64576;50.460;4.866;2023-05-10T03:39:07;11.31;99.99
75899;DHT22;64576;50.460;4.866;2023-05-10T03:41:34;11.30;99.99
75899;DHT22;64576;50.460;4.866;2023-05-10T03:43:59;11.30;99.99
75899;DHT22;64576;50.460;4.866;2023-05-10T03:46:24;11.26;99.99
75899;DHT22;64576;50.460;4.866;2023-05-10T03:48:50;11.17;99.99
75899;DHT22;64576;50.460;4.866;2023-05-10T03:51:15;11.14;99.99
75899;DHT22;64576;50.460;4.866;2023-05-10T03:53:40;11.12;99.99
75899;DHT22;64576;50.460;4.866;2023-05-10T03:56:06;11.09;99.99
75899;DHT22;64576;50.460;4.866;2023-05-10T03:58:31;11.06;99.99
75899;DHT22;64576;50.460;4.866;2023-05-10T04:00:57;11.04;99.99
75899;DHT22;64576;50.460;4.866;2023-05-10T04:03:22;11.00;99.99
75899;DHT22;64576;50.460;4.866;2023-05-10T04:05:48;10.99;99.99
75899;DHT22;64576;50.460;4.866;2023-05-10T04:08:13;10.99;99.99
75899;DHT22;64576;50.460;4.866;2023-05-10T04:10:41;10.99;99.99
75899;DHT22;64576;50.460;4.866;2023-05-10T04:13:06;10.99;99.99
75899;DHT22;64576;50.460;4.866;2023-05-10T04:15:32;10.97;99.99
75899;DHT22;64576;50.460;4.866;2023-05-10T04:17:57;10.97;99.99
75899;DHT22;64576;50.460;4.866;2023-05-10T04:20:22;10.97;99.99
75899;DHT22;64576;50.460;4.866;2023-05-10T04:22:48;10.97;99.99
75899;DHT22;64576;50.460;4.866;2023-05-10T04:25:13;10.99;99.99
75899;DHT22;64576;50.460;4.866;2023-05-10T04:27:39;10.97;99.99
75899;DHT22;64576;50.460;4.866;2023-05-10T04:30:04;10.97;99.99
75899;DHT22;64576;50.460;4.866;2023-05-10T04:32:30;10.97;99.99
75899;DHT22;64576;50.460;4.866;2023-05-10T04:34:56;10.93;99.99
75899;DHT22;64576;50.460;4.866;2023-05-10T04:37:21;10.92;99.99
75899;DHT22;64576;50.460;4.866;2023-05-10T04:39:48;10.92;99.99
75899;DHT22;64576;50.460;4.866;2023-05-10T04:42:13;10.86;99.99
75899;DHT22;64576;50.460;4.866;2023-05-10T04:44:40;10.71;99.99
75899;DHT22;64576;50.460;4.866;2023-05-10T04:47:05;10.58;99.99
75899;DHT22;64576;50.460;4.866;2023-05-10T04:49:31;10.44;99.99
75899;DHT22;64576;50.460;4.866;2023-05-10T04:51:56;10.40;99.99
75899;DHT22;64576;50.460;4.866;2023-05-10T04:54:21;10.30;99.99
75899;DHT22;64576;50.460;4.866;2023-05-10T04:56:47;10.25;99.99
75899;DHT22;64576;50.460;4.866;2023-05-10T04:59:12;10.24;99.99
75899;DHT22;64576;50.460;4.866;2023-05-10T05:01:38;10.21;99.99
75899;DHT22;64576;50.460;4.866;2023-05-10T05:04:03;10.18;99.99
75899;DHT22;64576;50.460;4.866;2023-05-10T05:06:29;10.18;99.99
75899;DHT22;64576;50.460;4.866;2023-05-10T05:08:54;10.14;99.99
75899;DHT22;64576;50.460;4.866;2023-05-10T05:11:20;10.06;99.99
75899;DHT22;64576;50.460;4.866;2023-05-10T05:13:46;10.06;99.99
75899;DHT22;64576;50.460;4.866;2023-05-10T05:16:11;10.02;99.99
75899;DHT22;64576;50.460;4.866;2023-05-10T05:18:37;9.97;99.99
75899;DHT22;64576;50.460;4.866;2023-05-10T05:21:02;9.99;99.99
75899;DHT22;64576;50.460;4.866;2023-05-10T05:23:28;9.97;99.99
75899;DHT22;64576;50.460;4.866;2023-05-10T05:25:53;9.93;99.99
75899;DHT22;64576;50.460;4.866;2023-05-10T05:28:22;9.96;99.99
75899;DHT22;64576;50.460;4.866;2023-05-10T05:30:47;9.92;99.99
75899;DHT22;64576;50.460;4.866;2023-05-10T05:33:13;9.90;99.99
75899;DHT22;64576;50.460;4.866;2023-05-10T05:35:40;9.92;99.99
75899;DHT22;64576;50.460;4.866;2023-05-10T05:38:06;9.89;99.99
75899;DHT22;64576;50.460;4.866;2023-05-10T05:40:31;9.89;99.99
75899;DHT22;64576;50.460;4.866;2023-05-10T05:42:58;9.89;99.99
75899;DHT22;64576;50.460;4.866;2023-05-10T05:45:23;9.86;99.99
75899;DHT22;64576;50.460;4.866;2023-05-10T05:47:49;9.83;99.99
75899;DHT22;64576;50.460;4.866;2023-05-10T05:50:14;9.87;99.99
75899;DHT22;64576;50.460;4.866;2023-05-10T05:52:39;9.90;99.99
75899;DHT22;64576;50.460;4.866;2023-05-10T05:55:05;9.94;99.99
75899;DHT22;64576;50.460;4.866;2023-05-10T05:57:30;9.87;99.99
75899;DHT22;64576;50.460;4.866;2023-05-10T05:59:56;9.87;99.99
75899;DHT22;64576;50.460;4.866;2023-05-10T06:02:21;9.90;99.99
75899;DHT22;64576;50.460;4.866;2023-05-10T06:04:47;9.92;99.99
75899;DHT22;64576;50.460;4.866;2023-05-10T06:07:12;9.89;99.99
75899;DHT22;64576;50.460;4.866;2023-05-10T06:09:38;9.94;99.99
75899;DHT22;64576;50.460;4.866;2023-05-10T06:12:03;9.90;99.99
75899;DHT22;64576;50.460;4.866;2023-05-10T06:14:29;9.90;99.99
75899;DHT22;64576;50.460;4.866;2023-05-10T06:16:54;9.93;99.99
75899;DHT22;64576;50.460;4.866;2023-05-10T06:19:20;9.92;99.99
75899;DHT22;64576;50.460;4.866;2023-05-10T06:21:45;9.89;99.99
75899;DHT22;64576;50.460;4.866;2023-05-10T06:24:10;9.90;99.99
75899;DHT22;64576;50.460;4.866;2023-05-10T06:26:36;9.90;99.99
75899;DHT22;64576;50.460;4.866;2023-05-10T06:29:01;9.89;99.99
75899;DHT22;64576;50.460;4.866;2023-05-10T06:31:27;9.87;99.99
75899;DHT22;64576;50.460;4.866;2023-05-10T06:33:53;9.87;99.87
75899;DHT22;64576;50.460;4.866;2023-05-10T06:36:19;9.92;99.99
75899;DHT22;64576;50.460;4.866;2023-05-10T06:38:45;9.92;99.99
75899;DHT22;64576;50.460;4.866;2023-05-10T06:41:10;9.94;99.99
75899;DHT22;64576;50.460;4.866;2023-05-10T06:43:36;10.00;99.99
75899;DHT22;64576;50.460;4.866;2023-05-10T06:46:05;10.03;99.99
75899;DHT22;64576;50.460;4.866;2023-05-10T06:48:30;10.10;99.99
75899;DHT22;64576;50.460;4.866;2023-05-10T06:50:56;10.13;99.99
75899;DHT22;64576;50.460;4.866;2023-05-10T06:53:21;10.14;99.93
75899;DHT22;64576;50.460;4.866;2023-05-10T06:55:47;10.18;99.99
75899;DHT22;64576;50.460;4.866;2023-05-10T06:58:14;10.24;99.99
75899;DHT22;64576;50.460;4.866;2023-05-10T07:00:39;10.23;99.62
75899;DHT22;64576;50.460;4.866;2023-05-10T07:03:05;10.30;99.34
75899;DHT22;64576;50.460;4.866;2023-05-10T07:05:31;10.31;99.01
75899;DHT22;64576;50.460;4.866;2023-05-10T07:07:56;10.37;98.89
75899;DHT22;64576;50.460;4.866;2023-05-10T07:10:22;10.45;98.87
75899;DHT22;64576;50.460;4.866;2023-05-10T07:12:47;10.51;98.50
75899;DHT22;64576;50.460;4.866;2023-05-10T07:15:13;10.61;98.41
75899;DHT22;64576;50.460;4.866;2023-05-10T07:17:38;10.75;98.08
75899;DHT22;64576;50.460;4.866;2023-05-10T07:20:04;10.95;98.03
75899;DHT22;64576;50.460;4.866;2023-05-10T07:22:30;11.00;97.51
75899;DHT22;64576;50.460;4.866;2023-05-10T07:24:55;11.04;96.77
75899;DHT22;64576;50.460;4.866;2023-05-10T07:27:21;11.17;96.98
75899;DHT22;64576;50.460;4.866;2023-05-10T07:29:46;11.22;96.60
75899;DHT22;64576;50.460;4.866;2023-05-10T07:32:11;11.35;95.70
75899;DHT22;64576;50.460;4.866;2023-05-10T07:34:37;11.54;95.67
75899;DHT22;64576;50.460;4.866;2023-05-10T07:37:02;11.38;95.21
75899;DHT22;64576;50.460;4.866;2023-05-10T07:39:28;11.52;95.27
75899;DHT22;64576;50.460;4.866;2023-05-10T07:41:54;11.41;96.01
75899;DHT22;64576;50.460;4.866;2023-05-10T07:44:19;11.42;95.69
75899;DHT22;64576;50.460;4.866;2023-05-10T07:46:46;11.54;95.26
75899;DHT22;64576;50.460;4.866;2023-05-10T07:49:11;11.47;94.50
75899;DHT22;64576;50.460;4.866;2023-05-10T07:51:37;11.33;96.16
75899;DHT22;64576;50.460;4.866;2023-05-10T07:54:02;11.54;95.21
75899;DHT22;64576;50.460;4.866;2023-05-10T07:56:30;11.52;94.81
75899;DHT22;64576;50.460;4.866;2023-05-10T07:58:57;11.64;94.45
75899;DHT22;64576;50.460;4.866;2023-05-10T08:01:23;11.79;94.68
75899;DHT22;64576;50.460;4.866;2023-05-10T08:03:49;11.65;93.87
75899;DHT22;64576;50.460;4.866;2023-05-10T08:06:17;11.67;94.00
75899;DHT22;64576;50.460;4.866;2023-05-10T08:08:43;11.75;94.44
75899;DHT22;64576;50.460;4.866;2023-05-10T08:11:10;11.57;93.56
75899;DHT22;64576;50.460;4.866;2023-05-10T08:13:36;11.60;93.84
75899;DHT22;64576;50.460;4.866;2023-05-10T08:16:01;11.60;94.37
75899;DHT22;64576;50.460;4.866;2023-05-10T08:18:27;11.67;94.25
75899;DHT22;64576;50.460;4.866;2023-05-10T08:20:53;11.72;94.14
75899;DHT22;64576;50.460;4.866;2023-05-10T08:23:18;11.75;93.59
75899;DHT22;64576;50.460;4.866;2023-05-10T08:25:44;11.90;93.28
75899;DHT22;64576;50.460;4.866;2023-05-10T08:28:09;12.05;93.17
75899;DHT22;64576;50.460;4.866;2023-05-10T08:30:35;12.24;92.32
75899;DHT22;64576;50.460;4.866;2023-05-10T08:33:01;12.32;91.99
75899;DHT22;64576;50.460;4.866;2023-05-10T08:35:26;12.74;90.33
75899;DHT22;64576;50.460;4.866;2023-05-10T08:37:51;13.10;88.99
75899;DHT22;64576;50.460;4.866;2023-05-10T08:40:19;13.75;88.82
75899;DHT22;64576;50.460;4.866;2023-05-10T08:42:51;13.68;88.62
75899;DHT22;64576;50.460;4.866;2023-05-10T08:45:17;13.91;86.75
75899;DHT22;64576;50.460;4.866;2023-05-10T08:47:43;14.08;86.85
75899;DHT22;64576;50.460;4.866;2023-05-10T08:50:10;14.11;85.24
75899;DHT22;64576;50.460;4.866;2023-05-10T08:52:38;14.78;84.25
75899;DHT22;64576;50.460;4.866;2023-05-10T08:55:05;14.89;82.57
75899;DHT22;64576;50.460;4.866;2023-05-10T08:57:31;14.25;83.50
75899;DHT22;64576;50.460;4.866;2023-05-10T08:59:57;14.18;83.42
75899;DHT22;64576;50.460;4.866;2023-05-10T09:02:23;13.78;84.73
75899;DHT22;64576;50.460;4.866;2023-05-10T09:04:49;13.81;85.03
75899;DHT22;64576;50.460;4.866;2023-05-10T09:07:14;13.55;83.94
75899;DHT22;64576;50.460;4.866;2023-05-10T09:09:41;14.08;83.83
75899;DHT22;64576;50.460;4.866;2023-05-10T09:12:07;14.30;83.23
75899;DHT22;64576;50.460;4.866;2023-05-10T09:14:36;14.40;82.05
75899;DHT22;64576;50.460;4.866;2023-05-10T09:17:02;14.64;82.62
75899;DHT22;64576;50.460;4.866;2023-05-10T09:19:29;15.11;80.04
75899;DHT22;64576;50.460;4.866;2023-05-10T09:21:54;14.98;80.54
75899;DHT22;64576;50.460;4.866;2023-05-10T09:24:25;14.30;80.47
75899;DHT22;64576;50.460;4.866;2023-05-10T09:26:50;14.12;81.76
75899;DHT22;64576;50.460;4.866;2023-05-10T09:29:16;13.75;83.22
75899;DHT22;64576;50.460;4.866;2023-05-10T09:31:49;13.82;83.29
75899;DHT22;64576;50.460;4.866;2023-05-10T09:34:30;13.79;82.64
75899;DHT22;64576;50.460;4.866;2023-05-10T09:36:57;13.99;83.87
75899;DHT22;64576;50.460;4.866;2023-05-10T09:39:34;14.34;81.51
75899;DHT22;64576;50.460;4.866;2023-05-10T09:42:02;14.78;80.34
75899;DHT22;64576;50.460;4.866;2023-05-10T09:44:29;14.73;81.21
75899;DHT22;64576;50.460;4.866;2023-05-10T09:46:54;14.57;80.50
75899;DHT22;64576;50.460;4.866;2023-05-10T09:49:23;14.60;82.19
75899;DHT22;64576;50.460;4.866;2023-05-10T09:52:06;14.37;81.77
75899;DHT22;64576;50.460;4.866;2023-05-10T09:54:32;13.70;83.11
75899;DHT22;64576;50.460;4.866;2023-05-10T09:56:57;13.24;85.10
75899;DHT22;64576;50.460;4.866;2023-05-10T09:59:25;13.43;84.78
75899;DHT22;64576;50.460;4.866;2023-05-10T10:01:52;13.68;85.10
75899;DHT22;64576;50.460;4.866;2023-05-10T10:04:18;13.60;85.48
75899;DHT22;64576;50.460;4.866;2023-05-10T10:06:44;13.47;86.72
75899;DHT22;64576;50.460;4.866;2023-05-10T10:09:10;13.12;87.18
75899;DHT22;64576;50.460;4.866;2023-05-10T10:11:37;12.78;87.87
75899;DHT22;64576;50.460;4.866;2023-05-10T10:14:03;12.55;88.74
75899;DHT22;64576;50.460;4.866;2023-05-10T10:16:29;12.36;89.78
75899;DHT22;64576;50.460;4.866;2023-05-10T10:18:55;12.29;90.92
75899;DHT22;64576;50.460;4.866;2023-05-10T10:21:22;12.29;91.50
75899;DHT22;64576;50.460;4.866;2023-05-10T10:23:47;12.55;93.54
75899;DHT22;64576;50.460;4.866;2023-05-10T10:26:14;12.72;93.69
75899;DHT22;64576;50.460;4.866;2023-05-10T10:34:00;12.68;92.09
75899;DHT22;64576;50.460;4.866;2023-05-10T10:36:26;12.54;91.62
75899;DHT22;64576;50.460;4.866;2023-05-10T10:38:55;12.43;91.39
75899;DHT22;64576;50.460;4.866;2023-05-10T10:41:33;12.43;91.87
75899;DHT22;64576;50.460;4.866;2023-05-10T10:55:15;12.09;94.48
75899;DHT22;64576;50.460;4.866;2023-05-10T10:57:48;11.98;94.33
75899;DHT22;64576;50.460;4.866;2023-05-10T11:05:44;11.58;93.17
75899;DHT22;64576;50.460;4.866;2023-05-10T11:08:12;11.50;94.27
75899;DHT22;64576;50.460;4.866;2023-05-10T11:10:38;11.58;95.57
75899;DHT22;64576;50.460;4.866;2023-05-10T11:13:08;11.62;96.22
75899;DHT22;64576;50.460;4.866;2023-05-10T11:15:39;11.62;93.75
75899;DHT22;64576;50.460;4.866;2023-05-10T11:18:23;11.60;94.45
75899;DHT22;64576;50.460;4.866;2023-05-10T11:21:09;11.74;94.54
75899;DHT22;64576;50.460;4.866;2023-05-10T11:23:55;11.89;94.54
75899;DHT22;64576;50.460;4.866;2023-05-10T11:26:23;12.00;94.63
75899;DHT22;64576;50.460;4.866;2023-05-10T11:28:54;12.13;94.49
75899;DHT22;64576;50.460;4.866;2023-05-10T11:31:24;12.27;93.99
75899;DHT22;64576;50.460;4.866;2023-05-10T11:33:56;12.38;93.67
75899;DHT22;64576;50.460;4.866;2023-05-10T11:36:24;12.47;93.18
75899;DHT22;64576;50.460;4.866;2023-05-10T11:38:51;12.29;92.31
75899;DHT22;64576;50.460;4.866;2023-05-10T11:41:18;12.23;92.49
75899;DHT22;64576;50.460;4.866;2023-05-10T11:43:45;12.07;92.71
75899;DHT22;64576;50.460;4.866;2023-05-10T11:46:12;11.98;92.82
75899;DHT22;64576;50.460;4.866;2023-05-10T11:48:39;11.89;93.04
75899;DHT22;64576;50.460;4.866;2023-05-10T11:51:05;11.85;93.32
75899;DHT22;64576;50.460;4.866;2023-05-10T11:53:31;11.83;93.64
75899;DHT22;64576;50.460;4.866;2023-05-10T11:56:07;11.79;93.59
75899;DHT22;64576;50.460;4.866;2023-05-10T11:58:34;11.81;94.49
75899;DHT22;64576;50.460;4.866;2023-05-10T12:01:00;11.85;94.01
75899;DHT22;64576;50.460;4.866;2023-05-10T12:03:27;11.95;93.48
75899;DHT22;64576;50.460;4.866;2023-05-10T12:05:52;11.98;93.06
75899;DHT22;64576;50.460;4.866;2023-05-10T12:08:24;12.03;92.91
75899;DHT22;64576;50.460;4.866;2023-05-10T12:10:49;12.17;92.73
75899;DHT22;64576;50.460;4.866;2023-05-10T12:13:15;12.34;92.76
75899;DHT22;64576;50.460;4.866;2023-05-10T12:15:41;12.50;92.01
75899;DHT22;64576;50.460;4.866;2023-05-10T12:18:09;12.71;91.01
75899;DHT22;64576;50.460;4.866;2023-05-10T12:20:35;12.91;90.60
75899;DHT22;64576;50.460;4.866;2023-05-10T12:23:02;13.17;90.29
75899;DHT22;64576;50.460;4.866;2023-05-10T12:25:34;13.44;89.71
75899;DHT22;64576;50.460;4.866;2023-05-10T12:28:03;13.55;87.92
75899;DHT22;64576;50.460;4.866;2023-05-10T12:30:30;13.77;87.96
75899;DHT22;64576;50.460;4.866;2023-05-10T12:33:01;13.99;87.07
75899;DHT22;64576;50.460;4.866;2023-05-10T12:35:30;14.13;85.52
75899;DHT22;64576;50.460;4.866;2023-05-10T12:37:55;14.12;86.04
75899;DHT22;64576;50.460;4.866;2023-05-10T12:40:21;14.25;85.23
75899;DHT22;64576;50.460;4.866;2023-05-10T12:42:46;14.41;84.64
75899;DHT22;64576;50.460;4.866;2023-05-10T12:45:30;14.50;85.67
75899;DHT22;64576;50.460;4.866;2023-05-10T12:47:56;14.60;85.71
75899;DHT22;64576;50.460;4.866;2023-05-10T12:50:21;14.67;83.72
75899;DHT22;64576;50.460;4.866;2023-05-10T12:52:47;14.84;83.04
75899;DHT22;64576;50.460;4.866;2023-05-10T12:55:12;14.85;81.93
75899;DHT22;64576;50.460;4.866;2023-05-10T12:57:38;14.99;82.82
75899;DHT22;64576;50.460;4.866;2023-05-10T13:00:03;15.08;81.78
75899;DHT22;64576;50.460;4.866;2023-05-10T13:02:30;15.06;80.63
75899;DHT22;64576;50.460;4.866;2023-05-10T13:04:55;15.29;83.20
75899;DHT22;64576;50.460;4.866;2023-05-10T13:07:21;15.32;81.37
75899;DHT22;64576;50.460;4.866;2023-05-10T13:09:46;15.33;80.88
75899;DHT22;64576;50.460;4.866;2023-05-10T13:12:12;15.23;78.87
75899;DHT22;64576;50.460;4.866;2023-05-10T13:14:37;15.15;82.76
75899;DHT22;64576;50.460;4.866;2023-05-10T13:17:03;15.09;79.13
75899;DHT22;64576;50.460;4.866;2023-05-10T13:19:28;15.32;79.60
75899;DHT22;64576;50.460;4.866;2023-05-10T13:21:53;15.05;79.64
75899;DHT22;64576;50.460;4.866;2023-05-10T13:24:19;15.18;80.10
75899;DHT22;64576;50.460;4.866;2023-05-10T13:26:44;15.23;78.97
75899;DHT22;64576;50.460;4.866;2023-05-10T13:29:10;15.46;79.51
75899;DHT22;64576;50.460;4.866;2023-05-10T13:31:35;15.74;78.77
75899;DHT22;64576;50.460;4.866;2023-05-10T13:34:01;15.93;77.54
75899;DHT22;64576;50.460;4.866;2023-05-10T13:36:27;15.90;77.24
75899;DHT22;64576;50.460;4.866;2023-05-10T13:38:52;15.81;77.38
75899;DHT22;64576;50.460;4.866;2023-05-10T13:41:18;15.70;77.89
75899;DHT22;64576;50.460;4.866;2023-05-10T13:43:43;15.09;77.83
75899;DHT22;64576;50.460;4.866;2023-05-10T13:46:09;15.35;76.62
75899;DHT22;64576;50.460;4.866;2023-05-10T13:48:34;15.56;76.95
75899;DHT22;64576;50.460;4.866;2023-05-10T13:51:01;15.59;77.85
75899;DHT22;64576;50.460;4.866;2023-05-10T13:53:27;15.50;76.06
75899;DHT22;64576;50.460;4.866;2023-05-10T13:55:52;15.68;77.14
75899;DHT22;64576;50.460;4.866;2023-05-10T13:58:18;15.29;78.39
75899;DHT22;64576;50.460;4.866;2023-05-10T14:00:43;15.46;77.36
75899;DHT22;64576;50.460;4.866;2023-05-10T14:03:08;15.78;77.61
75899;DHT22;64576;50.460;4.866;2023-05-10T14:05:36;15.93;77.25
75899;DHT22;64576;50.460;4.866;2023-05-10T14:08:01;15.90;75.88
75899;DHT22;64576;50.460;4.866;2023-05-10T14:10:27;15.86;76.24
75899;DHT22;64576;50.460;4.866;2023-05-10T14:12:52;15.97;75.45
75899;DHT22;64576;50.460;4.866;2023-05-10T14:15:17;15.66;75.83
75899;DHT22;64576;50.460;4.866;2023-05-10T14:17:43;15.53;77.59
75899;DHT22;64576;50.460;4.866;2023-05-10T14:20:08;15.76;76.23
75899;DHT22;64576;50.460;4.866;2023-05-10T14:22:34;15.94;76.79
75899;DHT22;64576;50.460;4.866;2023-05-10T14:25:00;16.15;75.51
75899;DHT22;64576;50.460;4.866;2023-05-10T14:27:26;16.25;75.22
75899;DHT22;64576;50.460;4.866;2023-05-10T14:29:51;16.52;74.02
75899;DHT22;64576;50.460;4.866;2023-05-10T14:32:18;16.30;72.95
75899;DHT22;64576;50.460;4.866;2023-05-10T14:34:43;16.19;73.81
75899;DHT22;64576;50.460;4.866;2023-05-10T14:37:10;15.98;74.16
75899;DHT22;64576;50.460;4.866;2023-05-10T14:39:36;16.15;75.80
75899;DHT22;64576;50.460;4.866;2023-05-10T14:42:01;16.38;74.35
75899;DHT22;64576;50.460;4.866;2023-05-10T14:44:27;16.30;73.16
75899;DHT22;64576;50.460;4.866;2023-05-10T14:46:53;16.02;73.60
75899;DHT22;64576;50.460;4.866;2023-05-10T14:49:18;16.09;74.92
75899;DHT22;64576;50.460;4.866;2023-05-10T14:51:44;16.12;74.78
75899;DHT22;64576;50.460;4.866;2023-05-10T14:54:10;16.01;74.54
75899;DHT22;64576;50.460;4.866;2023-05-10T14:56:36;16.19;74.55
75899;DHT22;64576;50.460;4.866;2023-05-10T14:59:02;16.48;75.07
75899;DHT22;64576;50.460;4.866;2023-05-10T15:01:29;16.33;74.58
75899;DHT22;64576;50.460;4.866;2023-05-10T15:03:54;15.71;76.75
75899;DHT22;64576;50.460;4.866;2023-05-10T15:06:23;15.54;77.16
75899;DHT22;64576;50.460;4.866;2023-05-10T15:08:52;15.44;77.42
75899;DHT22;64576;50.460;4.866;2023-05-10T15:11:17;15.02;77.97
75899;DHT22;64576;50.460;4.866;2023-05-10T15:13:42;14.59;80.61
75899;DHT22;64576;50.460;4.866;2023-05-10T15:16:08;14.01;83.70
75899;DHT22;64576;50.460;4.866;2023-05-10T15:18:33;13.82;88.23
75899;DHT22;64576;50.460;4.866;2023-05-10T15:20:59;13.05;89.74
75899;DHT22;64576;50.460;4.866;2023-05-10T15:23:24;12.69;90.82
75899;DHT22;64576;50.460;4.866;2023-05-10T15:25:49;12.61;92.07
75899;DHT22;64576;50.460;4.866;2023-05-10T15:28:17;12.53;92.99
75899;DHT22;64576;50.460;4.866;2023-05-10T15:30:42;12.48;92.95
75899;DHT22;64576;50.460;4.866;2023-05-10T15:33:08;12.47;92.62
75899;DHT22;64576;50.460;4.866;2023-05-10T15:35:33;12.57;92.56
75899;DHT22;64576;50.460;4.866;2023-05-10T15:38:00;12.48;92.45
75899;DHT22;64576;50.460;4.866;2023-05-10T15:40:26;12.60;93.22
75899;DHT22;64576;50.460;4.866;2023-05-10T15:42:51;12.68;92.82
75899;DHT22;64576;50.460;4.866;2023-05-10T15:45:17;12.82;93.06
75899;DHT22;64576;50.460;4.866;2023-05-10T15:47:43;12.99;94.37
75899;DHT22;64576;50.460;4.866;2023-05-10T15:50:09;13.00;92.01
75899;DHT22;64576;50.460;4.866;2023-05-10T15:52:35;13.00;92.16
75899;DHT22;64576;50.460;4.866;2023-05-10T15:55:01;12.95;91.90
75899;DHT22;64576;50.460;4.866;2023-05-10T15:57:27;13.03;92.48
75899;DHT22;64576;50.460;4.866;2023-05-10T15:59:52;13.05;91.58
75899;DHT22;64576;50.460;4.866;2023-05-10T16:02:17;12.93;91.77
75899;DHT22;64576;50.460;4.866;2023-05-10T16:04:43;12.82;92.25
75899;DHT22;64576;50.460;4.866;2023-05-10T16:07:08;12.81;93.27
75899;DHT22;64576;50.460;4.866;2023-05-10T16:09:34;12.82;93.83
75899;DHT22;64576;50.460;4.866;2023-05-10T16:11:59;12.81;93.85